»·PEaware :: N9401L KLAX-KSAN

N9401L :: KLAX-KSAN

FLIGHT INFORMATION

Flight Status: Arrived
Operator: Privately registered:
United States
More flights under this callsign
Pilot: Juan D. (11620)
Aircraft: PIPER PA-28R-201 ARROW
(P28R)
More flights by this aircraft type
Origin: KLAX Los Angeles Intl
United States
Destination: KSAN San Diego Intl-Lindbergh
United States
More flights between these airports :: More routes between these airports
Route: +SLI8 SLI V23 MZB
File this flight plan on PilotEdge
Remarks: TEC route LAXP64
Altitude:
(Current/Filed)
5,000ft
Speed:
(Current/Filed)
130kts
Departed: 07-Oct-18 04:02 PM
Arrived: 07-Oct-18 05:08 PM
Distance/Time
Traveled:
95nm/1:06
Distance/Time
To Go:
Arrived

Flight Plot

Page will automatically refresh every two minutes.

Flight plan parsing failed; only flown route is shown


Map Options




Map Legend


Flown Route
Filed Route
Departure Airport
Arrival Airport
Navaid (VOR, NDB)
Fix

Horizontal Profiles

Position Reports

Time Latitude Longitude Heading Altitude Ground
Speed
07-Oct-18 15:31 33.933894 -118.390430 184 128ft 0kts
07-Oct-18 15:32 33.933894 -118.390430 184 128ft 0kts
07-Oct-18 15:33 33.933894 -118.390430 184 128ft 0kts
07-Oct-18 15:34 33.933894 -118.390430 184 128ft 0kts
07-Oct-18 15:35 33.933894 -118.390430 184 128ft 0kts
07-Oct-18 15:36 33.933894 -118.390430 184 128ft 0kts
07-Oct-18 15:37 33.933894 -118.390430 184 128ft 0kts
07-Oct-18 15:38 33.933894 -118.390430 184 128ft 0kts
07-Oct-18 15:39 33.933894 -118.390430 184 128ft 0kts
07-Oct-18 15:40 33.933894 -118.390430 184 128ft 0kts
07-Oct-18 15:41 33.933894 -118.390430 184 128ft 0kts
07-Oct-18 15:42 33.933894 -118.390430 184 128ft 0kts
07-Oct-18 15:43 33.933894 -118.390430 184 128ft 0kts
07-Oct-18 15:44 33.933894 -118.390430 184 128ft 0kts
07-Oct-18 15:45 33.933894 -118.390430 184 128ft 0kts
07-Oct-18 15:46 33.933894 -118.390430 184 128ft 0kts
07-Oct-18 15:47 33.933894 -118.390430 184 128ft 0kts
07-Oct-18 15:48 33.933894 -118.390430 184 128ft 0kts
07-Oct-18 15:49 33.933894 -118.390430 184 128ft 0kts
07-Oct-18 15:50 33.933894 -118.390430 184 128ft 0kts
07-Oct-18 15:51 33.933894 -118.390430 184 128ft 0kts
07-Oct-18 15:52 33.933894 -118.390430 184 128ft 0kts
07-Oct-18 15:53 33.933894 -118.390430 184 128ft 0kts
07-Oct-18 15:54 33.933894 -118.390430 184 128ft 0kts
07-Oct-18 15:55 33.933894 -118.390430 184 128ft 0kts
07-Oct-18 15:56 33.933894 -118.390430 184 128ft 0kts
07-Oct-18 15:57 33.933894 -118.390430 184 128ft 0kts
07-Oct-18 15:58 33.933894 -118.390430 184 128ft 0kts
07-Oct-18 15:59 33.934260 -118.390215 14 128ft 10kts
07-Oct-18 16:00 33.935675 -118.387178 82 128ft 21kts
07-Oct-18 16:01 33.936141 -118.383042 59 128ft 0kts
07-Oct-18 16:02 33.936145 -118.383034 59 128ft 0kts
07-Oct-18 16:03 33.936145 -118.383034 59 128ft 0kts
07-Oct-18 16:04 33.936938 -118.387330 261 144ft 68kts
07-Oct-18 16:05 33.936129 -118.407861 260 1307ft 71kts
07-Oct-18 16:06 33.935233 -118.431732 261 2529ft 76kts
07-Oct-18 16:07 33.933597 -118.455707 259 3029ft 117kts
07-Oct-18 16:08 33.910170 -118.483768 212 3147ft 129kts
07-Oct-18 16:09 33.878730 -118.493953 170 4438ft 100kts
07-Oct-18 16:10 33.855721 -118.485429 147 5028ft 126kts
07-Oct-18 16:11 33.826950 -118.454154 144 5004ft 146kts
07-Oct-18 16:12 33.796291 -118.422728 145 5002ft 145kts
07-Oct-18 16:13 33.765337 -118.392858 146 5001ft 144kts
07-Oct-18 16:14 33.734533 -118.362951 146 5002ft 143kts
07-Oct-18 16:15 33.703448 -118.332639 146 5002ft 143kts
07-Oct-18 16:16 33.672622 -118.302412 145 5001ft 143kts
07-Oct-18 16:17 33.646946 -118.269726 127 5614ft 113kts
07-Oct-18 16:18 33.630779 -118.236742 123 6433ft 118kts
07-Oct-18 16:19 33.613626 -118.202149 122 7004ft 138kts
07-Oct-18 16:20 33.593188 -118.159545 121 7224ft 136kts
07-Oct-18 16:21 33.575840 -118.123800 120 8106ft 121kts
07-Oct-18 16:22 33.560204 -118.092137 119 9011ft 115kts
07-Oct-18 16:23 33.541457 -118.050937 116 8995ft 152kts
07-Oct-18 16:24 33.521092 -118.005485 116 8994ft 155kts
07-Oct-18 16:25 33.500697 -117.959687 116 8994ft 156kts
07-Oct-18 16:26 33.479390 -117.914410 118 8994ft 155kts
07-Oct-18 16:27 33.458210 -117.869826 118 8994ft 154kts
07-Oct-18 16:28 33.437126 -117.825220 118 8995ft 153kts
07-Oct-18 16:29 33.416028 -117.780652 117 8995ft 153kts
07-Oct-18 16:30 33.395016 -117.736480 117 8995ft 153kts
07-Oct-18 16:31 33.373884 -117.692078 117 8977ft 153kts
07-Oct-18 16:32 33.352660 -117.647688 117 8977ft 153kts
07-Oct-18 16:33 33.331396 -117.603629 117 8977ft 153kts
07-Oct-18 16:34 33.310159 -117.559566 116 8968ft 153kts
07-Oct-18 16:35 33.289019 -117.515334 116 8967ft 153kts
07-Oct-18 16:36 33.268113 -117.471555 117 8968ft 153kts
07-Oct-18 16:37 33.247221 -117.427464 116 8970ft 152kts
07-Oct-18 16:38 33.211121 -117.402236 156 8971ft 154kts
07-Oct-18 16:39 33.171144 -117.384590 161 8974ft 153kts
07-Oct-18 16:40 33.131061 -117.367421 161 8977ft 153kts
07-Oct-18 16:41 33.090993 -117.350040 162 8978ft 154kts
07-Oct-18 16:42 33.050748 -117.333262 163 8977ft 155kts
07-Oct-18 16:43 33.008488 -117.314587 163 8565ft 168kts
07-Oct-18 16:44 32.963202 -117.294809 166 7720ft 173kts
07-Oct-18 16:45 32.918632 -117.275762 166 7009ft 169kts
07-Oct-18 16:46 32.875593 -117.258080 166 6555ft 155kts
07-Oct-18 16:47 32.833910 -117.240749 166 6021ft 161kts
07-Oct-18 16:48 32.818461 -117.199720 98 5233ft 181kts
07-Oct-18 16:49 32.811296 -117.154112 101 4994ft 158kts
07-Oct-18 16:50 32.804332 -117.111748 101 4997ft 155kts
07-Oct-18 16:51 32.797103 -117.068246 101 4995ft 154kts
07-Oct-18 16:52 32.789590 -117.024057 101 4994ft 152kts
07-Oct-18 16:53 32.781598 -116.977890 101 4994ft 150kts
07-Oct-18 16:54 32.773126 -116.929541 101 4993ft 149kts
07-Oct-18 16:55 32.764690 -116.881656 100 4992ft 147kts
07-Oct-18 16:56 32.756196 -116.834228 106 4989ft 147kts
07-Oct-18 16:57 32.720489 -116.826649 191 4998ft 140kts
07-Oct-18 16:58 32.681993 -116.835414 193 5004ft 140kts
07-Oct-18 16:59 32.643598 -116.844147 193 5008ft 141kts
07-Oct-18 17:00 32.606300 -116.855824 231 5000ft 137kts
07-Oct-18 17:01 32.625891 -116.875511 10 5008ft 135kts
07-Oct-18 17:02 32.653751 -116.898484 310 5006ft 129kts
07-Oct-18 17:03 32.671914 -116.933400 281 5042ft 124kts
07-Oct-18 17:04 32.680878 -116.976240 285 3972ft 152kts
07-Oct-18 17:05 32.692556 -117.020350 286 3041ft 150kts
07-Oct-18 17:06 32.704057 -117.061125 285 2346ft 146kts
07-Oct-18 17:07 32.713408 -117.101475 281 1666ft 142kts
07-Oct-18 17:08 32.721768 -117.142707 282 955ft 122kts
07-Oct-18 17:09 32.728639 -117.169197 279 308ft 60kts
07-Oct-18 17:10 32.731970 -117.183488 281 20ft 9kts
07-Oct-18 17:11 32.731883 -117.187058 285 20ft 27kts
07-Oct-18 17:12 32.730522 -117.191049 120 20ft 0kts
07-Oct-18 17:13 32.730522 -117.191049 120 20ft 0kts
07-Oct-18 17:14 32.730522 -117.191049 120 20ft 0kts

Navigation Log

Ident Type
Flight plan parsing failed, navigation log unavailable